createdAt,value
2022-11-20T00:01:21.483Z,74.00
2022-11-20T00:03:48.596Z,74.10
2022-11-20T00:06:18.369Z,74.10
2022-11-20T00:08:46.302Z,74.00
2022-11-20T00:11:16.350Z,74.00
2022-11-20T00:13:44.876Z,73.90
2022-11-20T00:16:13.978Z,73.80
2022-11-20T00:18:41.011Z,74.00
2022-11-20T00:21:12.240Z,74.00
2022-11-20T00:23:39.247Z,74.00
2022-11-20T00:26:08.547Z,73.90
2022-11-20T00:28:36.039Z,73.90
2022-11-20T00:31:12.932Z,73.90
2022-11-20T00:33:40.141Z,73.90
2022-11-20T00:36:12.851Z,74.00
2022-11-20T00:38:40.000Z,74.00
2022-11-20T00:41:10.152Z,73.90
2022-11-20T00:43:38.324Z,73.80
2022-11-20T00:46:19.973Z,73.80
2022-11-20T00:48:47.528Z,73.90
2022-11-20T00:51:16.659Z,73.90
2022-11-20T00:53:44.064Z,74.00
2022-11-20T00:56:13.675Z,74.10
2022-11-20T00:58:42.802Z,74.10
2022-11-20T01:01:12.815Z,74.10
2022-11-20T01:03:42.634Z,74.20
2022-11-20T01:06:18.055Z,74.20
2022-11-20T01:08:45.954Z,74.10
2022-11-20T01:11:21.480Z,74.20
2022-11-20T01:13:50.393Z,74.30
2022-11-20T01:16:27.330Z,74.30
2022-11-20T01:18:57.101Z,74.30
2022-11-20T01:21:26.724Z,74.20
2022-11-20T01:23:53.892Z,74.20
2022-11-20T01:26:33.437Z,74.30
2022-11-20T01:29:02.091Z,74.30
2022-11-20T01:31:33.473Z,74.20
2022-11-20T01:34:07.579Z,74.40
2022-11-20T01:36:36.888Z,74.40
2022-11-20T01:39:08.155Z,74.40
2022-11-20T01:41:54.098Z,74.40
2022-11-20T01:44:23.961Z,74.40
2022-11-20T01:47:00.535Z,74.40
2022-11-20T01:49:46.111Z,74.40
2022-11-20T01:52:18.346Z,74.40
2022-11-20T01:54:52.487Z,74.40
2022-11-20T01:57:20.866Z,74.50
2022-11-20T01:59:54.864Z,74.40
2022-11-20T02:02:22.608Z,74.40
2022-11-20T02:04:52.746Z,74.40
2022-11-20T02:07:21.066Z,74.50
2022-11-20T02:09:48.364Z,74.50
2022-11-20T02:12:35.837Z,74.60
2022-11-20T02:15:03.097Z,74.70
2022-11-20T02:17:30.464Z,74.60
2022-11-20T02:19:57.479Z,74.60
2022-11-20T02:22:42.026Z,74.60
2022-11-20T02:25:10.130Z,74.60
2022-11-20T02:27:37.467Z,74.60
2022-11-20T02:30:08.684Z,74.60
2022-11-20T02:32:37.377Z,74.60
2022-11-20T02:35:31.773Z,74.50
2022-11-20T02:38:03.649Z,74.60
2022-11-20T02:40:30.800Z,74.60
2022-11-20T02:42:58.543Z,74.60
2022-11-20T02:45:26.259Z,74.60
2022-11-20T02:47:53.557Z,74.50
2022-11-20T02:50:20.700Z,74.40
2022-11-20T02:52:47.894Z,74.50
2022-11-20T02:55:14.873Z,74.50
2022-11-20T02:57:41.960Z,74.50
2022-11-20T03:00:10.157Z,74.40
2022-11-20T03:02:38.193Z,74.40
2022-11-20T03:05:05.363Z,74.40
2022-11-20T03:07:32.458Z,74.50
2022-11-20T03:09:59.496Z,74.50
2022-11-20T03:12:26.442Z,74.50
2022-11-20T03:14:53.574Z,74.40
2022-11-20T03:17:20.710Z,74.40
2022-11-20T03:19:47.781Z,74.40
2022-11-20T03:22:15.053Z,74.50
2022-11-20T03:24:41.995Z,74.60
2022-11-20T03:27:08.958Z,74.60
2022-11-20T03:29:39.052Z,74.60
2022-11-20T03:32:06.339Z,74.50
2022-11-20T03:34:33.309Z,74.50
2022-11-20T03:37:00.272Z,74.40
2022-11-20T03:39:27.772Z,74.40
2022-11-20T03:41:55.472Z,74.30
2022-11-20T03:44:23.379Z,74.30
2022-11-20T03:46:50.367Z,74.40
2022-11-20T03:49:17.358Z,74.40
2022-11-20T03:51:44.529Z,74.50
2022-11-20T03:54:11.614Z,74.50
2022-11-20T03:56:40.467Z,74.50
2022-11-20T03:59:07.795Z,74.40
2022-11-20T04:01:38.351Z,74.60
2022-11-20T04:04:06.003Z,74.50
2022-11-20T04:06:38.272Z,74.50
2022-11-20T04:09:06.472Z,74.40
2022-11-20T04:11:38.250Z,74.30
2022-11-20T04:14:07.401Z,74.30
2022-11-20T04:16:37.062Z,74.40
2022-11-20T04:19:07.760Z,74.40
2022-11-20T04:21:34.838Z,74.50
2022-11-20T04:24:02.343Z,74.60
2022-11-20T04:26:30.853Z,74.40
2022-11-20T04:29:00.201Z,74.50
2022-11-20T04:31:29.565Z,74.40
2022-11-20T04:33:59.799Z,74.30
2022-11-20T04:36:28.450Z,74.30
2022-11-20T04:38:57.739Z,74.20
2022-11-20T04:41:31.287Z,74.20
2022-11-20T04:44:03.416Z,74.10
2022-11-20T04:46:32.663Z,73.90
2022-11-20T04:49:00.866Z,73.70
2022-11-20T04:51:28.199Z,73.70
2022-11-20T04:53:55.447Z,74.00
2022-11-20T04:56:22.580Z,74.10
2022-11-20T04:58:49.783Z,74.20
2022-11-20T05:01:22.924Z,74.20
2022-11-20T05:03:50.299Z,74.40
2022-11-20T05:06:19.583Z,74.40
2022-11-20T05:08:46.639Z,74.40
2022-11-20T05:11:19.667Z,74.40
2022-11-20T05:13:46.970Z,74.40
2022-11-20T05:16:16.480Z,74.40
2022-11-20T05:18:44.068Z,74.40
2022-11-20T05:21:12.637Z,74.40
2022-11-20T05:23:40.246Z,74.40
2022-11-20T05:26:09.631Z,75.30
2022-11-20T05:28:36.930Z,74.50
2022-11-20T05:31:12.187Z,74.50
2022-11-20T05:33:41.993Z,74.40
2022-11-20T05:36:10.284Z,74.50
2022-11-20T05:38:37.718Z,74.60
2022-11-20T05:41:13.300Z,74.60
2022-11-20T05:43:41.982Z,74.60
2022-11-20T05:46:11.423Z,74.70
2022-11-20T05:48:40.018Z,74.70
2022-11-20T05:51:09.185Z,74.60
2022-11-20T05:53:37.352Z,74.70
2022-11-20T05:56:06.053Z,74.80
2022-11-20T05:58:33.805Z,74.80
2022-11-20T06:01:22.718Z,74.80
2022-11-20T06:03:51.860Z,74.90
2022-11-20T06:06:20.199Z,74.80
2022-11-20T06:08:48.038Z,74.80
2022-11-20T06:11:16.152Z,74.70
2022-11-20T06:13:43.781Z,74.60
2022-11-20T06:16:11.914Z,74.80
2022-11-20T06:18:39.005Z,74.80
2022-11-20T06:21:15.152Z,75.60
2022-11-20T06:23:42.563Z,74.90
2022-11-20T06:26:15.263Z,75.00
2022-11-20T06:28:42.306Z,75.00
2022-11-20T06:31:13.008Z,74.90
2022-11-20T06:33:40.353Z,75.00
2022-11-20T06:36:10.912Z,74.90
2022-11-20T06:38:39.228Z,75.10
2022-11-20T06:41:13.692Z,75.10
2022-11-20T06:43:40.831Z,75.10
2022-11-20T06:46:07.962Z,75.10
2022-11-20T06:48:34.907Z,75.20
2022-11-20T06:51:04.816Z,75.20
2022-11-20T06:53:31.807Z,75.30
2022-11-20T06:55:59.143Z,75.20
2022-11-20T06:58:28.956Z,75.10
2022-11-20T07:01:00.372Z,75.10
2022-11-20T07:03:27.558Z,75.10
2022-11-20T07:05:58.931Z,75.20
2022-11-20T07:08:26.357Z,75.30
2022-11-20T07:10:53.620Z,75.30
2022-11-20T07:13:20.643Z,75.20
2022-11-20T07:15:47.625Z,75.10
2022-11-20T07:18:14.619Z,75.00
2022-11-20T07:20:41.593Z,75.10
2022-11-20T07:23:08.602Z,75.10
2022-11-20T07:25:35.695Z,75.20
2022-11-20T07:28:04.684Z,75.20
2022-11-20T07:30:32.224Z,75.20
2022-11-20T07:32:59.272Z,75.20
2022-11-20T07:35:26.568Z,75.30
2022-11-20T07:37:53.557Z,75.30
2022-11-20T07:40:20.996Z,75.20
2022-11-20T07:42:56.236Z,75.20
2022-11-20T07:45:25.452Z,75.80
2022-11-20T07:47:52.787Z,75.10
2022-11-20T07:50:24.162Z,75.10
2022-11-20T07:53:02.110Z,75.10
2022-11-20T07:55:29.231Z,75.20
2022-11-20T07:57:58.035Z,75.30
2022-11-20T08:00:25.689Z,75.40
2022-11-20T08:02:52.954Z,75.50
2022-11-20T08:05:20.025Z,75.50
2022-11-20T08:07:47.151Z,75.40
2022-11-20T08:10:17.029Z,75.30
2022-11-20T08:13:08.337Z,75.30
2022-11-20T08:15:35.870Z,75.20
2022-11-20T08:18:31.839Z,75.20
2022-11-20T08:21:03.272Z,75.20
2022-11-20T08:23:30.277Z,75.40
2022-11-20T08:25:57.211Z,75.50
2022-11-20T08:28:24.305Z,75.40
2022-11-20T08:30:51.679Z,75.40
2022-11-20T08:33:19.577Z,75.40
2022-11-20T08:35:46.903Z,75.40
2022-11-20T08:38:13.982Z,75.40
2022-11-20T08:40:40.907Z,75.40
2022-11-20T08:43:07.842Z,75.50
2022-11-20T08:45:35.519Z,75.40
2022-11-20T08:48:04.398Z,75.30
2022-11-20T08:50:33.484Z,75.40
2022-11-20T08:53:05.656Z,75.00
2022-11-20T08:55:32.773Z,74.80
2022-11-20T08:58:03.839Z,74.70
2022-11-20T09:00:30.815Z,74.60
2022-11-20T09:02:59.609Z,74.30
2022-11-20T09:05:26.633Z,74.40
2022-11-20T09:07:56.928Z,74.40
2022-11-20T09:13:10.835Z,74.40
2022-11-20T09:15:37.790Z,74.60
2022-11-20T09:18:06.014Z,75.20
2022-11-20T09:20:33.030Z,75.60
2022-11-20T09:23:00.029Z,75.80
2022-11-20T09:25:27.083Z,75.90
2022-11-20T09:27:58.427Z,75.80
2022-11-20T09:30:25.915Z,75.80
2022-11-20T09:32:52.855Z,75.80
2022-11-20T09:35:19.978Z,76.00
2022-11-20T09:37:47.167Z,76.00
2022-11-20T09:40:35.958Z,76.10
2022-11-20T09:43:18.297Z,76.10
2022-11-20T09:46:09.626Z,76.00
2022-11-20T09:48:36.677Z,76.10
2022-11-20T09:51:06.596Z,75.90
2022-11-20T09:54:00.879Z,75.80
2022-11-20T09:56:29.743Z,75.70
2022-11-20T09:59:00.737Z,75.60
2022-11-20T10:01:33.531Z,75.70
2022-11-20T10:04:11.045Z,75.50
2022-11-20T10:06:59.664Z,75.60
2022-11-20T10:09:43.992Z,75.70
2022-11-20T10:12:11.538Z,75.80
2022-11-20T10:14:50.869Z,75.70
2022-11-20T10:17:42.833Z,75.40
2022-11-20T10:20:54.967Z,75.30
2022-11-20T10:23:27.945Z,75.40
2022-11-20T10:25:57.846Z,75.50
2022-11-20T10:28:36.587Z,75.60
2022-11-20T10:31:24.330Z,75.80
2022-11-20T10:34:11.646Z,76.10
2022-11-20T10:36:50.009Z,76.50
2022-11-20T10:39:31.066Z,76.70
2022-11-20T10:41:58.355Z,76.40
2022-11-20T10:44:52.484Z,76.20
2022-11-20T10:47:28.532Z,75.80
2022-11-20T10:49:59.226Z,75.40
2022-11-20T10:52:46.938Z,75.40
2022-11-20T10:55:19.866Z,75.00
2022-11-20T10:57:52.790Z,74.70
2022-11-20T11:00:19.821Z,74.70
2022-11-20T11:02:51.246Z,74.70
2022-11-20T11:05:36.375Z,74.70
2022-11-20T11:08:05.865Z,74.70
2022-11-20T11:10:55.875Z,74.90
2022-11-20T11:13:27.976Z,75.20
2022-11-20T11:15:55.346Z,75.70
2022-11-20T11:18:34.436Z,75.60
2022-11-20T11:21:04.239Z,74.70
2022-11-20T11:23:40.214Z,74.40
2022-11-20T11:26:28.257Z,73.70
2022-11-20T11:28:57.153Z,73.00
2022-11-20T11:31:35.733Z,73.20
2022-11-20T11:34:13.051Z,73.00
2022-11-20T11:36:40.191Z,73.10
2022-11-20T11:39:15.381Z,73.20
2022-11-20T11:41:42.702Z,73.00
2022-11-20T11:44:39.857Z,73.20
2022-11-20T11:47:14.293Z,73.10
2022-11-20T11:49:41.534Z,73.70
2022-11-20T11:52:15.020Z,73.40
2022-11-20T11:54:50.881Z,72.10
2022-11-20T11:57:37.959Z,71.20
2022-11-20T12:00:14.510Z,70.60
2022-11-20T12:02:49.421Z,70.50
2022-11-20T12:05:20.687Z,70.30
2022-11-20T12:08:18.526Z,70.00
2022-11-20T12:11:00.091Z,70.00
2022-11-20T12:14:05.411Z,69.70
2022-11-20T12:16:37.689Z,69.90
2022-11-20T12:19:13.435Z,69.70
2022-11-20T12:21:49.656Z,69.50
2022-11-20T12:24:35.163Z,69.30
2022-11-20T12:27:16.623Z,69.50
2022-11-20T12:29:49.726Z,69.70
2022-11-20T12:32:16.739Z,70.10
2022-11-20T12:34:58.825Z,70.40
2022-11-20T12:37:36.233Z,70.50
2022-11-20T12:40:24.345Z,70.70
2022-11-20T12:43:17.959Z,71.00
2022-11-20T12:46:07.002Z,71.20
2022-11-20T12:48:46.438Z,71.50
2022-11-20T12:55:22.088Z,71.50
2022-11-20T13:02:04.027Z,69.80
2022-11-20T13:04:50.334Z,69.70
2022-11-20T13:07:18.433Z,69.60
2022-11-20T13:09:48.940Z,70.00
2022-11-20T13:12:26.357Z,70.00
2022-11-20T13:15:07.044Z,69.60
2022-11-20T13:17:44.382Z,69.50
2022-11-20T13:20:18.034Z,69.90
2022-11-20T13:22:56.056Z,69.60
2022-11-20T13:25:27.022Z,69.00
2022-11-20T13:27:55.250Z,68.00
2022-11-20T13:30:24.647Z,67.30
2022-11-20T13:33:35.078Z,67.00
2022-11-20T13:36:25.574Z,67.10
2022-11-20T13:38:55.006Z,67.80
2022-11-20T13:41:32.263Z,68.40
2022-11-20T13:44:20.994Z,68.20
2022-11-20T13:46:48.606Z,67.50
2022-11-20T13:49:35.169Z,67.00
2022-11-20T13:52:33.114Z,66.60
2022-11-20T13:55:15.805Z,66.40
2022-11-20T13:58:20.427Z,66.20
2022-11-20T14:01:19.185Z,66.30
2022-11-20T14:06:44.311Z,67.00
2022-11-20T14:09:26.020Z,67.30
2022-11-20T14:11:52.999Z,67.50
2022-11-20T14:14:26.476Z,67.60
2022-11-20T14:17:05.685Z,67.60
2022-11-20T14:19:33.134Z,67.40
2022-11-20T14:22:19.659Z,67.40
2022-11-20T14:24:48.560Z,67.40
2022-11-20T14:27:20.621Z,67.40
2022-11-20T14:29:50.279Z,68.10
2022-11-20T14:32:20.216Z,67.20
2022-11-20T14:34:49.839Z,67.20
2022-11-20T14:37:39.556Z,67.20
2022-11-20T14:40:28.365Z,67.30
2022-11-20T14:42:56.089Z,67.40
2022-11-20T14:45:23.945Z,67.30
2022-11-20T14:48:47.579Z,67.30
2022-11-20T14:51:32.961Z,67.00
2022-11-20T14:54:15.116Z,67.00
2022-11-20T14:56:42.321Z,67.00
2022-11-20T14:59:10.669Z,67.90
2022-11-20T15:01:38.580Z,67.00
2022-11-20T15:04:11.922Z,66.90
2022-11-20T15:06:49.951Z,66.80
2022-11-20T15:09:17.370Z,66.70
2022-11-20T15:12:01.338Z,66.80
2022-11-20T15:14:31.289Z,66.70
2022-11-20T15:16:58.398Z,66.70
2022-11-20T15:19:27.327Z,66.60
2022-11-20T15:21:54.466Z,66.70
2022-11-20T15:24:21.850Z,67.80
2022-11-20T15:26:49.399Z,67.10
2022-11-20T15:29:21.986Z,67.20
2022-11-20T15:31:49.180Z,67.00
2022-11-20T15:34:16.881Z,66.70
2022-11-20T15:36:44.915Z,66.70
2022-11-20T15:39:12.664Z,66.70
2022-11-20T15:41:40.479Z,66.50
2022-11-20T15:44:07.501Z,66.40
2022-11-20T15:46:39.614Z,66.40
2022-11-20T15:49:12.722Z,66.40
2022-11-20T15:51:42.364Z,66.30
2022-11-20T15:54:27.680Z,66.30
2022-11-20T15:56:55.065Z,66.40
2022-11-20T15:59:22.399Z,66.20
2022-11-20T16:01:49.434Z,66.30
2022-11-20T16:04:19.432Z,66.20
2022-11-20T16:06:54.238Z,66.10
2022-11-20T16:09:21.447Z,66.10
2022-11-20T16:11:48.614Z,66.10
2022-11-20T16:14:34.248Z,66.10
2022-11-20T16:17:01.158Z,66.10
2022-11-20T16:19:28.145Z,66.10
2022-11-20T16:22:01.179Z,66.10
2022-11-20T16:24:29.802Z,66.10
2022-11-20T16:26:58.888Z,66.10
2022-11-20T16:29:25.864Z,66.20
2022-11-20T16:31:52.793Z,66.30
2022-11-20T16:34:19.892Z,66.30
2022-11-20T16:36:46.875Z,66.30
2022-11-20T16:39:16.704Z,66.40
2022-11-20T16:41:46.272Z,66.40
2022-11-20T16:44:13.282Z,66.40
2022-11-20T16:46:41.063Z,66.60
2022-11-20T16:49:13.065Z,66.60
2022-11-20T16:51:40.306Z,66.50
2022-11-20T16:54:09.651Z,66.40
2022-11-20T16:56:37.176Z,66.40
2022-11-20T16:59:18.000Z,66.40
2022-11-20T17:01:45.218Z,66.30
2022-11-20T17:04:12.226Z,66.20
2022-11-20T17:06:44.231Z,66.20
2022-11-20T17:09:11.799Z,66.10
2022-11-20T17:11:38.767Z,66.20
2022-11-20T17:14:07.583Z,66.00
2022-11-20T17:16:38.419Z,66.00
2022-11-20T17:19:05.999Z,66.00
2022-11-20T17:21:36.304Z,66.00
2022-11-20T17:24:06.140Z,66.00
2022-11-20T17:26:34.014Z,66.10
2022-11-20T17:29:06.925Z,66.00
2022-11-20T17:31:34.450Z,65.60
2022-11-20T17:34:05.913Z,65.20
2022-11-20T17:36:33.421Z,65.40
2022-11-20T17:39:00.754Z,65.50
2022-11-20T17:41:29.539Z,65.90
2022-11-20T17:43:58.702Z,66.20
2022-11-20T17:46:33.820Z,66.40
2022-11-20T17:49:02.581Z,66.40
2022-11-20T17:51:32.121Z,66.50
2022-11-20T17:54:07.695Z,66.50
2022-11-20T17:56:58.491Z,66.60
2022-11-20T17:59:26.166Z,66.50
2022-11-20T18:01:55.128Z,66.00
2022-11-20T18:04:23.985Z,65.60
2022-11-20T18:06:51.036Z,65.60
2022-11-20T18:09:18.078Z,65.90
2022-11-20T18:11:45.511Z,66.60
2022-11-20T18:14:34.774Z,67.00
2022-11-20T18:17:08.434Z,67.70
2022-11-20T18:19:48.061Z,68.40
2022-11-20T18:22:27.953Z,69.40
2022-11-20T18:24:56.200Z,69.50
2022-11-20T18:27:23.960Z,69.80
2022-11-20T18:29:52.348Z,70.00
2022-11-20T18:32:23.169Z,70.20
2022-11-20T18:34:50.954Z,70.50
2022-11-20T18:37:18.954Z,70.30
2022-11-20T18:39:45.976Z,70.70
2022-11-20T18:42:34.127Z,70.90
2022-11-20T18:45:02.433Z,71.20
2022-11-20T18:47:37.374Z,71.20
2022-11-20T18:50:06.073Z,71.80
2022-11-20T18:52:38.014Z,72.00
2022-11-20T18:55:10.211Z,72.30
2022-11-20T18:57:37.363Z,72.40
2022-11-20T19:00:09.417Z,72.30
2022-11-20T19:02:41.682Z,72.50
2022-11-20T19:05:13.665Z,72.50
2022-11-20T19:07:41.142Z,72.80
2022-11-20T19:10:08.460Z,73.00
2022-11-20T19:12:35.746Z,73.00
2022-11-20T19:15:04.335Z,73.10
2022-11-20T19:17:33.404Z,73.60
2022-11-20T19:20:01.012Z,74.00
2022-11-20T19:22:28.070Z,73.90
2022-11-20T19:24:55.312Z,74.30
2022-11-20T19:27:24.622Z,74.60
2022-11-20T19:29:51.743Z,74.80
2022-11-20T19:32:18.807Z,75.00
2022-11-20T19:34:45.868Z,75.20
2022-11-20T19:37:13.227Z,75.20
2022-11-20T19:39:40.372Z,75.40
2022-11-20T19:42:07.437Z,75.70
2022-11-20T19:44:34.674Z,75.50
2022-11-20T19:47:04.041Z,75.60
2022-11-20T19:49:31.213Z,75.70
2022-11-20T19:51:58.380Z,75.80
2022-11-20T19:54:27.598Z,76.10
2022-11-20T19:56:54.845Z,76.20
2022-11-20T19:59:22.104Z,76.20
2022-11-20T20:01:49.323Z,76.20
2022-11-20T20:04:16.537Z,76.20
2022-11-20T20:06:45.711Z,76.30
2022-11-20T20:09:13.425Z,76.40
2022-11-20T20:11:41.023Z,76.40
2022-11-20T20:14:14.628Z,76.70
2022-11-20T20:16:42.109Z,76.70
2022-11-20T20:19:13.351Z,76.70
2022-11-20T20:21:46.412Z,76.90
2022-11-20T20:24:13.582Z,77.00
2022-11-20T20:26:41.371Z,77.00
2022-11-20T20:29:08.715Z,76.90
2022-11-20T20:31:36.029Z,76.90
2022-11-20T20:34:05.455Z,76.90
2022-11-20T20:36:32.548Z,77.00
2022-11-20T20:38:59.813Z,77.20
2022-11-20T20:41:29.027Z,77.30
2022-11-20T20:44:15.076Z,77.60
2022-11-20T20:46:42.110Z,77.90
2022-11-20T20:49:11.371Z,77.90
2022-11-20T20:51:38.506Z,77.80
2022-11-20T20:54:05.703Z,77.90
2022-11-20T20:56:32.863Z,78.10
2022-11-20T20:58:59.872Z,78.20
2022-11-20T21:01:30.255Z,78.30
2022-11-20T21:03:57.611Z,78.30
2022-11-20T21:06:25.027Z,78.30
2022-11-20T21:08:52.382Z,78.40
2022-11-20T21:11:20.830Z,78.50
2022-11-20T21:13:48.605Z,78.60
2022-11-20T21:16:17.532Z,78.60
2022-11-20T21:18:44.628Z,78.80
2022-11-20T21:21:35.161Z,78.90
2022-11-20T21:24:03.185Z,79.10
2022-11-20T21:26:30.306Z,79.20
2022-11-20T21:28:57.738Z,79.40
2022-11-20T21:31:26.783Z,79.60
2022-11-20T21:33:55.399Z,79.50
2022-11-20T21:36:32.760Z,79.60
2022-11-20T21:39:00.899Z,79.70
2022-11-20T21:41:32.952Z,79.80
2022-11-20T21:46:50.756Z,80.00
2022-11-20T21:49:20.760Z,80.00
2022-11-20T21:51:47.940Z,80.30
2022-11-20T21:54:14.960Z,80.40
2022-11-20T21:56:42.044Z,80.40
2022-11-20T21:59:14.082Z,80.50
2022-11-20T22:01:41.909Z,80.70
2022-11-20T22:04:13.903Z,80.80
2022-11-20T22:06:41.412Z,80.90
2022-11-20T22:09:10.153Z,80.90
2022-11-20T22:11:37.445Z,81.10
2022-11-20T22:14:23.444Z,81.40
2022-11-20T22:16:52.870Z,81.60
2022-11-20T22:19:21.435Z,81.60
2022-11-20T22:21:49.404Z,81.70
2022-11-20T22:24:18.440Z,81.70
2022-11-20T22:26:46.371Z,81.60
2022-11-20T22:29:21.462Z,81.60
2022-11-20T22:31:50.950Z,81.30
2022-11-20T22:34:17.986Z,81.10
2022-11-20T22:36:45.662Z,80.80
2022-11-20T22:39:13.576Z,80.60
2022-11-20T22:41:40.826Z,80.50
2022-11-20T22:44:08.932Z,80.40
2022-11-20T22:46:37.292Z,80.40
2022-11-20T22:49:06.294Z,80.50
2022-11-20T22:51:41.579Z,80.40
2022-11-20T22:54:33.876Z,80.50
2022-11-20T22:57:00.905Z,80.60
2022-11-20T22:59:27.908Z,80.50
2022-11-20T23:01:54.867Z,80.50
2022-11-20T23:04:22.324Z,80.50
2022-11-20T23:06:49.781Z,80.70
2022-11-20T23:09:17.546Z,80.80
2022-11-20T23:12:03.193Z,80.80
2022-11-20T23:14:31.053Z,80.70
2022-11-20T23:16:58.093Z,81.10
2022-11-20T23:19:25.335Z,80.20
2022-11-20T23:21:52.266Z,80.40
2022-11-20T23:24:19.335Z,80.50
2022-11-20T23:26:47.986Z,80.90
2022-11-20T23:29:15.290Z,81.20
2022-11-20T23:31:42.669Z,81.50
2022-11-20T23:34:09.735Z,81.70
2022-11-20T23:36:36.643Z,81.80
2022-11-20T23:39:03.882Z,82.00
2022-11-20T23:41:30.820Z,82.10
2022-11-20T23:43:57.771Z,82.10
2022-11-20T23:46:24.830Z,82.20
2022-11-20T23:48:51.787Z,82.50
2022-11-20T23:51:18.922Z,82.60
2022-11-20T23:53:45.918Z,82.80
2022-11-20T23:56:15.002Z,82.80
2022-11-20T23:58:42.414Z,82.80
